sensor_id;sensor_type;location;lat;lon;timestamp;temperature;humidity
53520;DHT22;39397;53.204;5.778;2023-07-31T00:01:59;17.00;99.90
53520;DHT22;39397;53.204;5.778;2023-07-31T00:04:25;17.00;99.90
53520;DHT22;39397;53.204;5.778;2023-07-31T00:06:50;17.00;99.90
53520;DHT22;39397;53.204;5.778;2023-07-31T00:09:16;17.10;99.90
53520;DHT22;39397;53.204;5.778;2023-07-31T00:11:42;17.10;99.90
53520;DHT22;39397;53.204;5.778;2023-07-31T00:14:07;17.00;99.90
53520;DHT22;39397;53.204;5.778;2023-07-31T00:16:33;16.70;99.90
53520;DHT22;39397;53.204;5.778;2023-07-31T00:18:58;17.00;99.90
53520;DHT22;39397;53.204;5.778;2023-07-31T00:21:24;17.00;99.90
53520;DHT22;39397;53.204;5.778;2023-07-31T00:23:49;17.00;99.90
53520;DHT22;39397;53.204;5.778;2023-07-31T00:26:15;17.00;99.90
53520;DHT22;39397;53.204;5.778;2023-07-31T00:28:41;17.00;99.90
53520;DHT22;39397;53.204;5.778;2023-07-31T00:31:06;17.00;99.90
53520;DHT22;39397;53.204;5.778;2023-07-31T00:33:34;17.00;99.90
53520;DHT22;39397;53.204;5.778;2023-07-31T00:35:59;16.90;99.90
53520;DHT22;39397;53.204;5.778;2023-07-31T00:38:25;17.00;99.90
53520;DHT22;39397;53.204;5.778;2023-07-31T00:40:50;16.90;99.90
53520;DHT22;39397;53.204;5.778;2023-07-31T00:43:16;17.00;99.90
53520;DHT22;39397;53.204;5.778;2023-07-31T00:45:41;16.90;99.90
53520;DHT22;39397;53.204;5.778;2023-07-31T00:48:07;16.90;99.90
53520;DHT22;39397;53.204;5.778;2023-07-31T00:50:33;16.90;99.90
53520;DHT22;39397;53.204;5.778;2023-07-31T00:53:00;17.00;99.90
53520;DHT22;39397;53.204;5.778;2023-07-31T00:55:25;17.00;99.90
53520;DHT22;39397;53.204;5.778;2023-07-31T00:57:51;16.90;99.90
53520;DHT22;39397;53.204;5.778;2023-07-31T01:00:18;17.00;99.90
53520;DHT22;39397;53.204;5.778;2023-07-31T01:02:44;16.90;99.90
53520;DHT22;39397;53.204;5.778;2023-07-31T01:05:09;17.00;99.90
53520;DHT22;39397;53.204;5.778;2023-07-31T01:10:07;16.90;99.90
53520;DHT22;39397;53.204;5.778;2023-07-31T01:12:33;16.80;99.90
53520;DHT22;39397;53.204;5.778;2023-07-31T01:17:28;16.80;99.90
53520;DHT22;39397;53.204;5.778;2023-07-31T01:19:54;16.80;99.90
53520;DHT22;39397;53.204;5.778;2023-07-31T01:22:23;16.80;99.90
53520;DHT22;39397;53.204;5.778;2023-07-31T01:25:17;16.70;99.90
53520;DHT22;39397;53.204;5.778;2023-07-31T01:27:44;17.50;99.90
53520;DHT22;39397;53.204;5.778;2023-07-31T01:30:13;16.70;99.90
53520;DHT22;39397;53.204;5.778;2023-07-31T01:32:42;16.60;99.90
53520;DHT22;39397;53.204;5.778;2023-07-31T01:35:08;16.70;99.90
53520;DHT22;39397;53.204;5.778;2023-07-31T01:37:34;16.80;99.90
53520;DHT22;39397;53.204;5.778;2023-07-31T01:40:00;16.70;99.90
53520;DHT22;39397;53.204;5.778;2023-07-31T01:42:25;16.60;99.90
53520;DHT22;39397;53.204;5.778;2023-07-31T01:44:51;16.60;99.90
53520;DHT22;39397;53.204;5.778;2023-07-31T01:47:16;16.50;99.90
53520;DHT22;39397;53.204;5.778;2023-07-31T01:49:42;16.60;99.90
53520;DHT22;39397;53.204;5.778;2023-07-31T01:52:08;16.50;99.90
53520;DHT22;39397;53.204;5.778;2023-07-31T01:54:33;16.50;99.90
53520;DHT22;39397;53.204;5.778;2023-07-31T01:56:59;16.50;99.90
53520;DHT22;39397;53.204;5.778;2023-07-31T01:59:24;16.50;99.90
53520;DHT22;39397;53.204;5.778;2023-07-31T02:01:50;16.40;99.90
53520;DHT22;39397;53.204;5.778;2023-07-31T02:04:16;16.50;99.90
53520;DHT22;39397;53.204;5.778;2023-07-31T02:06:41;16.40;99.90
53520;DHT22;39397;53.204;5.778;2023-07-31T02:09:07;16.40;99.90
53520;DHT22;39397;53.204;5.778;2023-07-31T02:11:32;16.40;99.90
53520;DHT22;39397;53.204;5.778;2023-07-31T02:13:58;16.40;99.90
53520;DHT22;39397;53.204;5.778;2023-07-31T02:16:24;16.60;99.90
53520;DHT22;39397;53.204;5.778;2023-07-31T02:18:49;16.30;99.90
53520;DHT22;39397;53.204;5.778;2023-07-31T02:21:15;16.40;99.90
53520;DHT22;39397;53.204;5.778;2023-07-31T02:23:40;16.50;99.90
53520;DHT22;39397;53.204;5.778;2023-07-31T02:26:06;16.40;99.90
53520;DHT22;39397;53.204;5.778;2023-07-31T02:28:31;16.40;99.90
53520;DHT22;39397;53.204;5.778;2023-07-31T02:30:57;16.30;99.90
53520;DHT22;39397;53.204;5.778;2023-07-31T02:33:23;16.30;99.90
53520;DHT22;39397;53.204;5.778;2023-07-31T02:35:48;16.30;99.90
53520;DHT22;39397;53.204;5.778;2023-07-31T02:38:14;16.50;99.90
53520;DHT22;39397;53.204;5.778;2023-07-31T02:40:40;16.30;99.90
53520;DHT22;39397;53.204;5.778;2023-07-31T02:43:06;16.20;99.90
53520;DHT22;39397;53.204;5.778;2023-07-31T02:45:32;16.30;99.90
53520;DHT22;39397;53.204;5.778;2023-07-31T02:47:58;16.30;99.90
53520;DHT22;39397;53.204;5.778;2023-07-31T02:50:23;16.20;99.90
53520;DHT22;39397;53.204;5.778;2023-07-31T02:52:49;16.30;99.90
53520;DHT22;39397;53.204;5.778;2023-07-31T02:55:14;16.30;99.90
53520;DHT22;39397;53.204;5.778;2023-07-31T02:57:40;16.30;99.90
53520;DHT22;39397;53.204;5.778;2023-07-31T03:00:06;16.30;99.90
53520;DHT22;39397;53.204;5.778;2023-07-31T03:02:32;16.10;99.90
53520;DHT22;39397;53.204;5.778;2023-07-31T03:04:57;16.10;99.90
53520;DHT22;39397;53.204;5.778;2023-07-31T03:07:23;16.30;99.90
53520;DHT22;39397;53.204;5.778;2023-07-31T03:09:48;16.10;99.90
53520;DHT22;39397;53.204;5.778;2023-07-31T03:12:14;16.00;99.90
53520;DHT22;39397;53.204;5.778;2023-07-31T03:14:40;15.80;99.90
53520;DHT22;39397;53.204;5.778;2023-07-31T03:17:06;15.90;99.90
53520;DHT22;39397;53.204;5.778;2023-07-31T03:19:31;16.00;99.90
53520;DHT22;39397;53.204;5.778;2023-07-31T03:21:58;15.30;99.90
53520;DHT22;39397;53.204;5.778;2023-07-31T03:24:23;16.00;99.90
53520;DHT22;39397;53.204;5.778;2023-07-31T03:26:49;15.90;99.90
53520;DHT22;39397;53.204;5.778;2023-07-31T03:29:14;15.90;99.90
53520;DHT22;39397;53.204;5.778;2023-07-31T03:31:40;16.00;99.90
53520;DHT22;39397;53.204;5.778;2023-07-31T03:34:05;15.80;99.90
53520;DHT22;39397;53.204;5.778;2023-07-31T03:36:31;16.00;99.90
53520;DHT22;39397;53.204;5.778;2023-07-31T03:38:57;15.90;99.90
53520;DHT22;39397;53.204;5.778;2023-07-31T03:41:22;15.80;99.90
53520;DHT22;39397;53.204;5.778;2023-07-31T03:43:49;15.90;99.90
53520;DHT22;39397;53.204;5.778;2023-07-31T03:46:17;16.00;99.90
53520;DHT22;39397;53.204;5.778;2023-07-31T03:48:42;15.90;99.90
53520;DHT22;39397;53.204;5.778;2023-07-31T03:51:08;16.00;99.90
53520;DHT22;39397;53.204;5.778;2023-07-31T03:53:34;15.90;99.90
53520;DHT22;39397;53.204;5.778;2023-07-31T03:55:59;16.00;99.90
53520;DHT22;39397;53.204;5.778;2023-07-31T03:58:25;15.90;99.90
53520;DHT22;39397;53.204;5.778;2023-07-31T04:00:50;15.90;99.90
53520;DHT22;39397;53.204;5.778;2023-07-31T04:03:16;16.00;99.90
53520;DHT22;39397;53.204;5.778;2023-07-31T04:05:41;16.00;99.90
53520;DHT22;39397;53.204;5.778;2023-07-31T04:08:07;16.00;99.90
53520;DHT22;39397;53.204;5.778;2023-07-31T04:10:33;16.00;99.90
53520;DHT22;39397;53.204;5.778;2023-07-31T04:12:59;16.20;99.90
53520;DHT22;39397;53.204;5.778;2023-07-31T04:15:25;16.20;99.90
53520;DHT22;39397;53.204;5.778;2023-07-31T04:17:51;16.10;99.90
53520;DHT22;39397;53.204;5.778;2023-07-31T04:20:17;16.10;99.90
53520;DHT22;39397;53.204;5.778;2023-07-31T04:22:42;16.20;99.90
53520;DHT22;39397;53.204;5.778;2023-07-31T04:25:08;16.30;99.90
53520;DHT22;39397;53.204;5.778;2023-07-31T04:27:34;16.30;99.90
53520;DHT22;39397;53.204;5.778;2023-07-31T04:29:59;16.30;99.90
53520;DHT22;39397;53.204;5.778;2023-07-31T04:32:25;16.40;99.90
53520;DHT22;39397;53.204;5.778;2023-07-31T04:34:50;16.50;99.90
53520;DHT22;39397;53.204;5.778;2023-07-31T04:37:16;16.60;99.90
53520;DHT22;39397;53.204;5.778;2023-07-31T04:39:41;16.30;99.90
53520;DHT22;39397;53.204;5.778;2023-07-31T04:42:07;16.40;99.90
53520;DHT22;39397;53.204;5.778;2023-07-31T04:44:32;16.50;99.90
53520;DHT22;39397;53.204;5.778;2023-07-31T04:46:58;16.60;99.90
53520;DHT22;39397;53.204;5.778;2023-07-31T04:49:24;16.60;99.90
53520;DHT22;39397;53.204;5.778;2023-07-31T04:51:49;16.50;99.90
53520;DHT22;39397;53.204;5.778;2023-07-31T04:54:15;16.50;99.90
53520;DHT22;39397;53.204;5.778;2023-07-31T04:56:40;16.50;99.90
53520;DHT22;39397;53.204;5.778;2023-07-31T04:59:06;16.60;99.90
53520;DHT22;39397;53.204;5.778;2023-07-31T05:01:32;16.50;99.90
53520;DHT22;39397;53.204;5.778;2023-07-31T05:03:57;15.40;99.90
53520;DHT22;39397;53.204;5.778;2023-07-31T05:06:23;16.70;99.90
53520;DHT22;39397;53.204;5.778;2023-07-31T05:08:48;16.60;99.90
53520;DHT22;39397;53.204;5.778;2023-07-31T05:11:14;14.50;99.90
53520;DHT22;39397;53.204;5.778;2023-07-31T05:13:40;16.60;99.90
53520;DHT22;39397;53.204;5.778;2023-07-31T05:16:05;16.60;99.90
53520;DHT22;39397;53.204;5.778;2023-07-31T05:18:31;16.50;99.90
53520;DHT22;39397;53.204;5.778;2023-07-31T05:20:56;16.50;99.90
53520;DHT22;39397;53.204;5.778;2023-07-31T05:23:22;16.60;99.90
53520;DHT22;39397;53.204;5.778;2023-07-31T05:25:47;16.60;99.90
53520;DHT22;39397;53.204;5.778;2023-07-31T05:28:13;16.60;99.90
53520;DHT22;39397;53.204;5.778;2023-07-31T05:30:38;16.70;99.90
53520;DHT22;39397;53.204;5.778;2023-07-31T05:33:04;16.60;99.90
53520;DHT22;39397;53.204;5.778;2023-07-31T05:35:30;16.70;99.90
53520;DHT22;39397;53.204;5.778;2023-07-31T05:37:55;16.70;99.90
53520;DHT22;39397;53.204;5.778;2023-07-31T05:40:21;16.70;99.90
53520;DHT22;39397;53.204;5.778;2023-07-31T05:42:46;16.70;99.90
53520;DHT22;39397;53.204;5.778;2023-07-31T05:45:12;16.80;99.90
53520;DHT22;39397;53.204;5.778;2023-07-31T05:47:39;17.00;99.90
53520;DHT22;39397;53.204;5.778;2023-07-31T05:50:04;16.80;99.90
53520;DHT22;39397;53.204;5.778;2023-07-31T05:52:30;16.80;99.90
53520;DHT22;39397;53.204;5.778;2023-07-31T05:54:56;16.90;99.90
53520;DHT22;39397;53.204;5.778;2023-07-31T05:57:21;16.70;99.90
53520;DHT22;39397;53.204;5.778;2023-07-31T05:59:47;16.80;99.90
53520;DHT22;39397;53.204;5.778;2023-07-31T06:02:12;16.80;99.90
53520;DHT22;39397;53.204;5.778;2023-07-31T06:04:38;16.80;99.90
53520;DHT22;39397;53.204;5.778;2023-07-31T06:07:04;16.80;99.90
53520;DHT22;39397;53.204;5.778;2023-07-31T06:09:30;16.70;99.90
53520;DHT22;39397;53.204;5.778;2023-07-31T06:11:55;16.90;99.90
53520;DHT22;39397;53.204;5.778;2023-07-31T06:14:21;16.80;99.90
53520;DHT22;39397;53.204;5.778;2023-07-31T06:16:46;16.80;99.90
53520;DHT22;39397;53.204;5.778;2023-07-31T06:19:12;16.80;99.90
53520;DHT22;39397;53.204;5.778;2023-07-31T06:21:38;16.90;99.90
53520;DHT22;39397;53.204;5.778;2023-07-31T06:24:04;16.70;99.90
53520;DHT22;39397;53.204;5.778;2023-07-31T06:26:30;16.90;99.90
53520;DHT22;39397;53.204;5.778;2023-07-31T06:28:55;17.00;99.90
53520;DHT22;39397;53.204;5.778;2023-07-31T06:31:24;16.90;99.90
53520;DHT22;39397;53.204;5.778;2023-07-31T06:33:50;17.00;99.90
53520;DHT22;39397;53.204;5.778;2023-07-31T06:36:16;17.10;99.90
53520;DHT22;39397;53.204;5.778;2023-07-31T06:38:42;17.10;99.90
53520;DHT22;39397;53.204;5.778;2023-07-31T06:41:07;17.00;99.90
53520;DHT22;39397;53.204;5.778;2023-07-31T06:43:33;17.10;99.90
53520;DHT22;39397;53.204;5.778;2023-07-31T06:46:03;17.00;99.90
53520;DHT22;39397;53.204;5.778;2023-07-31T06:48:29;17.10;99.90
53520;DHT22;39397;53.204;5.778;2023-07-31T06:50:55;17.00;99.90
53520;DHT22;39397;53.204;5.778;2023-07-31T06:53:20;17.00;99.90
53520;DHT22;39397;53.204;5.778;2023-07-31T06:55:46;17.00;99.90
53520;DHT22;39397;53.204;5.778;2023-07-31T06:58:13;17.00;99.90
53520;DHT22;39397;53.204;5.778;2023-07-31T07:00:39;17.10;99.90
53520;DHT22;39397;53.204;5.778;2023-07-31T07:03:04;17.10;99.90
53520;DHT22;39397;53.204;5.778;2023-07-31T07:05:30;17.10;99.90
53520;DHT22;39397;53.204;5.778;2023-07-31T07:07:55;17.10;99.90
53520;DHT22;39397;53.204;5.778;2023-07-31T07:10:21;17.30;99.90
53520;DHT22;39397;53.204;5.778;2023-07-31T07:12:47;17.30;99.90
53520;DHT22;39397;53.204;5.778;2023-07-31T07:15:13;17.40;99.90
53520;DHT22;39397;53.204;5.778;2023-07-31T07:17:38;17.30;99.90
53520;DHT22;39397;53.204;5.778;2023-07-31T07:20:04;17.50;99.90
53520;DHT22;39397;53.204;5.778;2023-07-31T07:22:30;17.60;99.90
53520;DHT22;39397;53.204;5.778;2023-07-31T07:24:55;17.60;99.90
53520;DHT22;39397;53.204;5.778;2023-07-31T07:27:21;17.60;99.90
53520;DHT22;39397;53.204;5.778;2023-07-31T07:29:47;17.60;99.90
53520;DHT22;39397;53.204;5.778;2023-07-31T07:32:12;17.60;99.90
53520;DHT22;39397;53.204;5.778;2023-07-31T07:34:38;17.80;99.90
53520;DHT22;39397;53.204;5.778;2023-07-31T07:37:04;17.80;99.90
53520;DHT22;39397;53.204;5.778;2023-07-31T07:39:29;17.80;99.90
53520;DHT22;39397;53.204;5.778;2023-07-31T07:41:55;17.90;99.90
53520;DHT22;39397;53.204;5.778;2023-07-31T07:44:20;17.80;99.90
53520;DHT22;39397;53.204;5.778;2023-07-31T07:46:46;17.90;99.90
53520;DHT22;39397;53.204;5.778;2023-07-31T07:49:12;17.90;99.90
53520;DHT22;39397;53.204;5.778;2023-07-31T07:51:38;17.90;99.90
53520;DHT22;39397;53.204;5.778;2023-07-31T07:54:03;18.00;99.90
53520;DHT22;39397;53.204;5.778;2023-07-31T07:56:29;18.10;99.90
53520;DHT22;39397;53.204;5.778;2023-07-31T07:58:54;18.20;99.90
53520;DHT22;39397;53.204;5.778;2023-07-31T08:01:20;18.20;99.90
53520;DHT22;39397;53.204;5.778;2023-07-31T08:03:46;18.30;99.90
53520;DHT22;39397;53.204;5.778;2023-07-31T08:06:12;18.30;99.90
53520;DHT22;39397;53.204;5.778;2023-07-31T08:08:37;18.30;99.90
53520;DHT22;39397;53.204;5.778;2023-07-31T08:11:03;18.30;99.90
53520;DHT22;39397;53.204;5.778;2023-07-31T08:13:29;18.40;99.90
53520;DHT22;39397;53.204;5.778;2023-07-31T08:15:55;18.50;99.90
53520;DHT22;39397;53.204;5.778;2023-07-31T08:18:20;18.70;99.90
53520;DHT22;39397;53.204;5.778;2023-07-31T08:20:46;18.80;99.90
53520;DHT22;39397;53.204;5.778;2023-07-31T08:23:11;18.70;99.90
53520;DHT22;39397;53.204;5.778;2023-07-31T08:25:37;18.90;99.90
53520;DHT22;39397;53.204;5.778;2023-07-31T08:28:03;19.00;99.90
53520;DHT22;39397;53.204;5.778;2023-07-31T08:30:29;19.10;99.90
53520;DHT22;39397;53.204;5.778;2023-07-31T08:32:55;19.30;99.90
53520;DHT22;39397;53.204;5.778;2023-07-31T08:35:21;19.40;99.90
53520;DHT22;39397;53.204;5.778;2023-07-31T08:37:46;19.30;99.90
53520;DHT22;39397;53.204;5.778;2023-07-31T08:40:12;19.20;99.90
53520;DHT22;39397;53.204;5.778;2023-07-31T08:42:49;19.40;99.90
53520;DHT22;39397;53.204;5.778;2023-07-31T08:45:15;19.30;99.90
53520;DHT22;39397;53.204;5.778;2023-07-31T08:47:44;19.20;99.90
53520;DHT22;39397;53.204;5.778;2023-07-31T08:50:12;19.20;99.90
53520;DHT22;39397;53.204;5.778;2023-07-31T08:52:37;19.20;99.90
53520;DHT22;39397;53.204;5.778;2023-07-31T08:55:03;19.30;99.90
53520;DHT22;39397;53.204;5.778;2023-07-31T08:57:29;19.20;99.90
53520;DHT22;39397;53.204;5.778;2023-07-31T08:59:55;19.40;99.90
53520;DHT22;39397;53.204;5.778;2023-07-31T09:02:21;19.40;99.90
53520;DHT22;39397;53.204;5.778;2023-07-31T09:04:47;19.10;99.90
53520;DHT22;39397;53.204;5.778;2023-07-31T09:07:13;18.90;99.90
53520;DHT22;39397;53.204;5.778;2023-07-31T09:09:40;18.70;99.90
53520;DHT22;39397;53.204;5.778;2023-07-31T09:12:06;18.80;99.90
53520;DHT22;39397;53.204;5.778;2023-07-31T09:14:32;18.60;99.90
53520;DHT22;39397;53.204;5.778;2023-07-31T09:16:58;18.60;99.90
53520;DHT22;39397;53.204;5.778;2023-07-31T09:19:25;18.70;99.90
53520;DHT22;39397;53.204;5.778;2023-07-31T09:21:51;18.70;99.90
53520;DHT22;39397;53.204;5.778;2023-07-31T09:24:29;18.50;99.90
53520;DHT22;39397;53.204;5.778;2023-07-31T09:26:56;18.40;99.90
53520;DHT22;39397;53.204;5.778;2023-07-31T09:29:22;18.30;99.90
53520;DHT22;39397;53.204;5.778;2023-07-31T09:31:48;18.20;99.90
53520;DHT22;39397;53.204;5.778;2023-07-31T09:34:14;18.20;99.90
53520;DHT22;39397;53.204;5.778;2023-07-31T09:36:49;18.30;99.90
53520;DHT22;39397;53.204;5.778;2023-07-31T09:39:15;18.20;99.90
53520;DHT22;39397;53.204;5.778;2023-07-31T09:41:43;18.20;99.90
53520;DHT22;39397;53.204;5.778;2023-07-31T09:44:09;18.20;99.90
53520;DHT22;39397;53.204;5.778;2023-07-31T09:46:35;18.30;99.90
53520;DHT22;39397;53.204;5.778;2023-07-31T09:49:06;18.40;99.90
53520;DHT22;39397;53.204;5.778;2023-07-31T09:51:32;18.50;99.90
53520;DHT22;39397;53.204;5.778;2023-07-31T09:54:04;18.70;99.90
53520;DHT22;39397;53.204;5.778;2023-07-31T09:56:29;18.70;99.90
53520;DHT22;39397;53.204;5.778;2023-07-31T09:58:56;18.90;99.90
53520;DHT22;39397;53.204;5.778;2023-07-31T10:01:21;18.90;99.90
53520;DHT22;39397;53.204;5.778;2023-07-31T10:03:47;19.10;99.90
53520;DHT22;39397;53.204;5.778;2023-07-31T10:06:13;19.10;99.90
53520;DHT22;39397;53.204;5.778;2023-07-31T10:08:41;19.20;99.90
53520;DHT22;39397;53.204;5.778;2023-07-31T10:11:08;19.10;99.90
53520;DHT22;39397;53.204;5.778;2023-07-31T10:13:35;19.10;99.90
53520;DHT22;39397;53.204;5.778;2023-07-31T10:16:00;19.20;99.90
53520;DHT22;39397;53.204;5.778;2023-07-31T10:18:26;19.40;99.90
53520;DHT22;39397;53.204;5.778;2023-07-31T10:20:53;19.40;99.90
53520;DHT22;39397;53.204;5.778;2023-07-31T10:23:19;19.40;99.90
53520;DHT22;39397;53.204;5.778;2023-07-31T10:25:45;19.40;99.90
53520;DHT22;39397;53.204;5.778;2023-07-31T10:28:12;19.30;99.90
53520;DHT22;39397;53.204;5.778;2023-07-31T10:30:38;19.30;99.90
53520;DHT22;39397;53.204;5.778;2023-07-31T10:33:04;19.40;99.90
53520;DHT22;39397;53.204;5.778;2023-07-31T10:35:30;19.30;99.90
53520;DHT22;39397;53.204;5.778;2023-07-31T10:37:56;19.50;99.90
53520;DHT22;39397;53.204;5.778;2023-07-31T10:40:34;19.40;99.90
53520;DHT22;39397;53.204;5.778;2023-07-31T10:42:59;19.50;99.90
53520;DHT22;39397;53.204;5.778;2023-07-31T10:47:57;19.50;99.90
53520;DHT22;39397;53.204;5.778;2023-07-31T10:50:24;19.60;99.90
53520;DHT22;39397;53.204;5.778;2023-07-31T10:52:50;19.60;99.90
53520;DHT22;39397;53.204;5.778;2023-07-31T10:55:26;19.70;99.90
53520;DHT22;39397;53.204;5.778;2023-07-31T10:57:53;19.90;99.90
53520;DHT22;39397;53.204;5.778;2023-07-31T11:00:28;19.90;99.90
53520;DHT22;39397;53.204;5.778;2023-07-31T11:05:45;19.70;99.90
53520;DHT22;39397;53.204;5.778;2023-07-31T11:08:18;19.80;99.90
53520;DHT22;39397;53.204;5.778;2023-07-31T11:10:45;19.80;99.90
53520;DHT22;39397;53.204;5.778;2023-07-31T11:13:11;19.40;99.90
53520;DHT22;39397;53.204;5.778;2023-07-31T11:15:36;19.30;99.90
53520;DHT22;39397;53.204;5.778;2023-07-31T11:18:02;20.10;99.90
53520;DHT22;39397;53.204;5.778;2023-07-31T11:20:34;19.20;99.90
53520;DHT22;39397;53.204;5.778;2023-07-31T11:23:03;19.20;99.90
53520;DHT22;39397;53.204;5.778;2023-07-31T11:25:29;19.30;99.90
53520;DHT22;39397;53.204;5.778;2023-07-31T11:27:55;18.40;99.90
53520;DHT22;39397;53.204;5.778;2023-07-31T11:30:21;19.50;99.90
53520;DHT22;39397;53.204;5.778;2023-07-31T11:32:47;19.50;99.90
53520;DHT22;39397;53.204;5.778;2023-07-31T11:35:13;19.60;99.90
53520;DHT22;39397;53.204;5.778;2023-07-31T11:37:41;19.60;99.90
53520;DHT22;39397;53.204;5.778;2023-07-31T11:40:07;20.00;99.90
53520;DHT22;39397;53.204;5.778;2023-07-31T11:42:37;19.90;99.90
53520;DHT22;39397;53.204;5.778;2023-07-31T11:45:03;19.90;99.90
53520;DHT22;39397;53.204;5.778;2023-07-31T11:47:29;20.00;99.90
53520;DHT22;39397;53.204;5.778;2023-07-31T11:49:56;20.10;99.90
53520;DHT22;39397;53.204;5.778;2023-07-31T11:52:21;20.20;99.90
53520;DHT22;39397;53.204;5.778;2023-07-31T11:54:48;20.10;99.90
53520;DHT22;39397;53.204;5.778;2023-07-31T11:57:14;20.20;99.90
53520;DHT22;39397;53.204;5.778;2023-07-31T11:59:40;20.20;99.90
53520;DHT22;39397;53.204;5.778;2023-07-31T12:02:07;20.20;99.90
53520;DHT22;39397;53.204;5.778;2023-07-31T12:04:32;20.20;99.90
53520;DHT22;39397;53.204;5.778;2023-07-31T12:06:59;20.20;99.90
53520;DHT22;39397;53.204;5.778;2023-07-31T12:09:25;20.30;99.90
53520;DHT22;39397;53.204;5.778;2023-07-31T12:11:51;20.40;99.90
53520;DHT22;39397;53.204;5.778;2023-07-31T12:14:21;20.30;99.90
53520;DHT22;39397;53.204;5.778;2023-07-31T12:16:47;20.40;99.90
53520;DHT22;39397;53.204;5.778;2023-07-31T12:19:13;20.30;99.90
53520;DHT22;39397;53.204;5.778;2023-07-31T12:21:39;20.30;99.90
53520;DHT22;39397;53.204;5.778;2023-07-31T12:24:04;20.30;99.90
53520;DHT22;39397;53.204;5.778;2023-07-31T12:26:33;20.30;99.90
53520;DHT22;39397;53.204;5.778;2023-07-31T12:28:59;20.20;99.90
53520;DHT22;39397;53.204;5.778;2023-07-31T12:31:25;20.20;99.90
53520;DHT22;39397;53.204;5.778;2023-07-31T12:33:52;20.20;99.90
53520;DHT22;39397;53.204;5.778;2023-07-31T12:36:27;20.20;99.90
53520;DHT22;39397;53.204;5.778;2023-07-31T12:38:54;20.00;99.90
53520;DHT22;39397;53.204;5.778;2023-07-31T12:41:21;20.10;99.90
53520;DHT22;39397;53.204;5.778;2023-07-31T12:43:47;20.20;99.90
53520;DHT22;39397;53.204;5.778;2023-07-31T12:46:12;20.20;99.90
53520;DHT22;39397;53.204;5.778;2023-07-31T12:48:38;20.20;99.90
53520;DHT22;39397;53.204;5.778;2023-07-31T12:51:04;20.10;99.90
53520;DHT22;39397;53.204;5.778;2023-07-31T12:53:30;20.10;99.90
53520;DHT22;39397;53.204;5.778;2023-07-31T12:55:56;20.20;99.90
53520;DHT22;39397;53.204;5.778;2023-07-31T12:58:21;20.20;99.90
53520;DHT22;39397;53.204;5.778;2023-07-31T13:00:47;20.30;99.90
53520;DHT22;39397;53.204;5.778;2023-07-31T13:03:13;20.30;99.90
53520;DHT22;39397;53.204;5.778;2023-07-31T13:05:38;20.40;99.90
53520;DHT22;39397;53.204;5.778;2023-07-31T13:08:04;20.50;99.90
53520;DHT22;39397;53.204;5.778;2023-07-31T13:10:29;20.60;99.90
53520;DHT22;39397;53.204;5.778;2023-07-31T13:12:55;20.70;99.90
53520;DHT22;39397;53.204;5.778;2023-07-31T13:15:21;20.90;99.90
53520;DHT22;39397;53.204;5.778;2023-07-31T13:17:47;21.00;99.90
53520;DHT22;39397;53.204;5.778;2023-07-31T13:20:12;21.00;99.90
53520;DHT22;39397;53.204;5.778;2023-07-31T13:22:38;21.20;99.90
53520;DHT22;39397;53.204;5.778;2023-07-31T13:25:03;21.30;99.90
53520;DHT22;39397;53.204;5.778;2023-07-31T13:27:30;21.40;99.90
53520;DHT22;39397;53.204;5.778;2023-07-31T13:29:56;21.30;99.90
53520;DHT22;39397;53.204;5.778;2023-07-31T13:32:22;21.30;99.90
53520;DHT22;39397;53.204;5.778;2023-07-31T13:34:47;21.20;99.90
53520;DHT22;39397;53.204;5.778;2023-07-31T13:37:13;21.40;99.90
53520;DHT22;39397;53.204;5.778;2023-07-31T13:39:39;21.40;99.90
53520;DHT22;39397;53.204;5.778;2023-07-31T13:42:05;21.30;99.90
53520;DHT22;39397;53.204;5.778;2023-07-31T13:44:34;21.40;99.90
53520;DHT22;39397;53.204;5.778;2023-07-31T13:47:00;21.40;99.90
53520;DHT22;39397;53.204;5.778;2023-07-31T13:49:26;21.40;99.90
53520;DHT22;39397;53.204;5.778;2023-07-31T13:51:51;21.30;99.90
53520;DHT22;39397;53.204;5.778;2023-07-31T13:54:17;21.30;99.90
53520;DHT22;39397;53.204;5.778;2023-07-31T13:56:43;21.30;99.90
53520;DHT22;39397;53.204;5.778;2023-07-31T13:59:08;21.20;99.90
53520;DHT22;39397;53.204;5.778;2023-07-31T14:01:34;21.00;99.90
53520;DHT22;39397;53.204;5.778;2023-07-31T14:03:59;20.80;99.90
53520;DHT22;39397;53.204;5.778;2023-07-31T14:06:25;20.90;99.90
53520;DHT22;39397;53.204;5.778;2023-07-31T14:08:50;20.90;99.90
53520;DHT22;39397;53.204;5.778;2023-07-31T14:11:16;20.90;99.90
53520;DHT22;39397;53.204;5.778;2023-07-31T14:13:41;22.60;99.90
53520;DHT22;39397;53.204;5.778;2023-07-31T14:16:07;20.70;99.90
53520;DHT22;39397;53.204;5.778;2023-07-31T14:18:33;20.60;99.90
53520;DHT22;39397;53.204;5.778;2023-07-31T14:20:58;20.70;99.90
53520;DHT22;39397;53.204;5.778;2023-07-31T14:23:24;20.60;99.90
53520;DHT22;39397;53.204;5.778;2023-07-31T14:25:49;20.60;99.90
53520;DHT22;39397;53.204;5.778;2023-07-31T14:28:15;20.50;99.90
53520;DHT22;39397;53.204;5.778;2023-07-31T14:30:40;20.40;99.90
53520;DHT22;39397;53.204;5.778;2023-07-31T14:33:06;20.50;99.90
53520;DHT22;39397;53.204;5.778;2023-07-31T14:35:31;20.30;99.90
53520;DHT22;39397;53.204;5.778;2023-07-31T14:37:57;20.20;99.90
53520;DHT22;39397;53.204;5.778;2023-07-31T14:40:23;20.20;99.90
53520;DHT22;39397;53.204;5.778;2023-07-31T14:42:48;20.20;99.90
53520;DHT22;39397;53.204;5.778;2023-07-31T14:45:14;20.20;99.90
53520;DHT22;39397;53.204;5.778;2023-07-31T14:47:39;20.20;99.90
53520;DHT22;39397;53.204;5.778;2023-07-31T14:50:05;20.10;99.90
53520;DHT22;39397;53.204;5.778;2023-07-31T14:52:31;20.10;99.90
53520;DHT22;39397;53.204;5.778;2023-07-31T14:54:56;20.10;99.90
53520;DHT22;39397;53.204;5.778;2023-07-31T14:57:22;19.90;99.90
53520;DHT22;39397;53.204;5.778;2023-07-31T14:59:47;19.90;99.90
53520;DHT22;39397;53.204;5.778;2023-07-31T15:02:14;19.90;99.90
53520;DHT22;39397;53.204;5.778;2023-07-31T15:04:40;20.00;99.90
53520;DHT22;39397;53.204;5.778;2023-07-31T15:07:05;19.80;99.90
53520;DHT22;39397;53.204;5.778;2023-07-31T15:09:31;19.80;99.90
53520;DHT22;39397;53.204;5.778;2023-07-31T15:11:57;19.80;99.90
53520;DHT22;39397;53.204;5.778;2023-07-31T15:14:23;19.80;99.90
53520;DHT22;39397;53.204;5.778;2023-07-31T15:16:49;19.80;99.90
53520;DHT22;39397;53.204;5.778;2023-07-31T15:19:15;19.80;99.90
53520;DHT22;39397;53.204;5.778;2023-07-31T15:21:41;19.80;99.90
53520;DHT22;39397;53.204;5.778;2023-07-31T15:24:06;19.90;99.90
53520;DHT22;39397;53.204;5.778;2023-07-31T15:26:32;19.90;99.90
53520;DHT22;39397;53.204;5.778;2023-07-31T15:29:02;19.80;99.90
53520;DHT22;39397;53.204;5.778;2023-07-31T15:31:29;19.90;99.90
53520;DHT22;39397;53.204;5.778;2023-07-31T15:33:55;20.00;99.90